sensor_id;sensor_type;location;lat;lon;timestamp;temperature;humidity
837;DHT22;400;53.550;9.932;2023-05-20T00:01:05;13.50;90.50
837;DHT22;400;53.550;9.932;2023-05-20T00:03:33;13.40;90.50
837;DHT22;400;53.550;9.932;2023-05-20T00:06:00;13.40;90.70
837;DHT22;400;53.550;9.932;2023-05-20T00:08:27;13.30;90.80
837;DHT22;400;53.550;9.932;2023-05-20T00:10:54;13.30;90.80
837;DHT22;400;53.550;9.932;2023-05-20T00:13:20;13.30;90.90
837;DHT22;400;53.550;9.932;2023-05-20T00:15:48;13.30;91.00
837;DHT22;400;53.550;9.932;2023-05-20T00:18:15;13.30;91.00
837;DHT22;400;53.550;9.932;2023-05-20T00:20:44;13.30;91.00
837;DHT22;400;53.550;9.932;2023-05-20T00:23:10;13.30;90.90
837;DHT22;400;53.550;9.932;2023-05-20T00:25:37;13.40;91.00
837;DHT22;400;53.550;9.932;2023-05-20T00:28:05;13.40;91.00
837;DHT22;400;53.550;9.932;2023-05-20T00:30:32;13.40;90.90
837;DHT22;400;53.550;9.932;2023-05-20T00:32:59;13.30;91.00
837;DHT22;400;53.550;9.932;2023-05-20T00:35:26;13.30;91.00
837;DHT22;400;53.550;9.932;2023-05-20T00:37:54;13.30;91.00
837;DHT22;400;53.550;9.932;2023-05-20T00:40:21;13.20;91.10
837;DHT22;400;53.550;9.932;2023-05-20T00:42:49;13.20;91.20
837;DHT22;400;53.550;9.932;2023-05-20T00:45:16;13.20;91.20
837;DHT22;400;53.550;9.932;2023-05-20T00:47:43;13.20;91.20
837;DHT22;400;53.550;9.932;2023-05-20T00:50:10;13.20;91.20
837;DHT22;400;53.550;9.932;2023-05-20T00:52:37;13.20;91.20
837;DHT22;400;53.550;9.932;2023-05-20T00:55:08;13.10;91.30
837;DHT22;400;53.550;9.932;2023-05-20T00:57:35;13.10;91.30
837;DHT22;400;53.550;9.932;2023-05-20T01:00:02;13.10;91.20
837;DHT22;400;53.550;9.932;2023-05-20T01:02:29;13.10;91.30
837;DHT22;400;53.550;9.932;2023-05-20T01:04:56;13.10;91.40
837;DHT22;400;53.550;9.932;2023-05-20T01:07:23;13.10;91.40
837;DHT22;400;53.550;9.932;2023-05-20T01:09:51;13.10;91.40
837;DHT22;400;53.550;9.932;2023-05-20T01:12:24;13.10;91.50
837;DHT22;400;53.550;9.932;2023-05-20T01:14:57;13.00;91.50
837;DHT22;400;53.550;9.932;2023-05-20T01:17:26;13.00;91.70
837;DHT22;400;53.550;9.932;2023-05-20T01:19:58;13.00;91.70
837;DHT22;400;53.550;9.932;2023-05-20T01:22:27;13.00;91.90
837;DHT22;400;53.550;9.932;2023-05-20T01:24:54;13.00;92.00
837;DHT22;400;53.550;9.932;2023-05-20T01:27:22;12.90;92.10
837;DHT22;400;53.550;9.932;2023-05-20T01:29:50;12.80;92.20
837;DHT22;400;53.550;9.932;2023-05-20T01:32:19;12.80;92.40
837;DHT22;400;53.550;9.932;2023-05-20T01:34:48;12.80;92.40
837;DHT22;400;53.550;9.932;2023-05-20T01:37:16;12.80;92.60
837;DHT22;400;53.550;9.932;2023-05-20T01:39:46;12.70;92.70
837;DHT22;400;53.550;9.932;2023-05-20T01:42:15;12.60;92.90
837;DHT22;400;53.550;9.932;2023-05-20T01:44:42;12.60;93.00
837;DHT22;400;53.550;9.932;2023-05-20T01:47:09;12.60;93.20
837;DHT22;400;53.550;9.932;2023-05-20T01:49:36;12.50;93.30
837;DHT22;400;53.550;9.932;2023-05-20T01:52:03;12.60;93.30
837;DHT22;400;53.550;9.932;2023-05-20T01:54:30;12.50;93.40
837;DHT22;400;53.550;9.932;2023-05-20T01:56:59;12.50;93.50
837;DHT22;400;53.550;9.932;2023-05-20T01:59:26;12.50;93.50
837;DHT22;400;53.550;9.932;2023-05-20T02:01:52;12.50;93.60
837;DHT22;400;53.550;9.932;2023-05-20T02:04:19;12.40;93.80
837;DHT22;400;53.550;9.932;2023-05-20T02:06:47;12.50;94.20
837;DHT22;400;53.550;9.932;2023-05-20T02:09:14;12.40;94.70
837;DHT22;400;53.550;9.932;2023-05-20T02:11:41;12.40;95.60
837;DHT22;400;53.550;9.932;2023-05-20T02:14:09;12.40;96.20
837;DHT22;400;53.550;9.932;2023-05-20T02:16:36;12.40;96.80
837;DHT22;400;53.550;9.932;2023-05-20T02:19:03;12.40;97.20
837;DHT22;400;53.550;9.932;2023-05-20T02:21:29;12.40;97.80
837;DHT22;400;53.550;9.932;2023-05-20T02:23:56;12.40;98.20
837;DHT22;400;53.550;9.932;2023-05-20T02:26:23;12.40;98.40
837;DHT22;400;53.550;9.932;2023-05-20T02:28:50;12.40;99.00
837;DHT22;400;53.550;9.932;2023-05-20T02:31:19;12.40;99.70
837;DHT22;400;53.550;9.932;2023-05-20T02:33:46;12.40;99.90
837;DHT22;400;53.550;9.932;2023-05-20T02:36:13;12.30;99.90
837;DHT22;400;53.550;9.932;2023-05-20T02:38:41;12.30;99.90
837;DHT22;400;53.550;9.932;2023-05-20T02:41:08;12.30;99.90
837;DHT22;400;53.550;9.932;2023-05-20T02:43:35;12.30;99.90
837;DHT22;400;53.550;9.932;2023-05-20T02:46:02;12.30;99.90
837;DHT22;400;53.550;9.932;2023-05-20T02:48:30;12.20;99.90
837;DHT22;400;53.550;9.932;2023-05-20T02:50:58;12.20;99.90
837;DHT22;400;53.550;9.932;2023-05-20T02:53:25;12.20;99.90
837;DHT22;400;53.550;9.932;2023-05-20T02:55:52;12.20;99.90
837;DHT22;400;53.550;9.932;2023-05-20T02:58:18;12.00;99.90
837;DHT22;400;53.550;9.932;2023-05-20T03:00:50;12.10;99.90
837;DHT22;400;53.550;9.932;2023-05-20T03:03:17;12.10;99.90
837;DHT22;400;53.550;9.932;2023-05-20T03:05:45;12.10;99.90
837;DHT22;400;53.550;9.932;2023-05-20T03:08:14;12.10;99.90
837;DHT22;400;53.550;9.932;2023-05-20T03:10:41;12.10;99.90
837;DHT22;400;53.550;9.932;2023-05-20T03:18:14;12.10;99.90
837;DHT22;400;53.550;9.932;2023-05-20T03:20:41;12.10;99.90
837;DHT22;400;53.550;9.932;2023-05-20T03:23:09;12.10;99.90
837;DHT22;400;53.550;9.932;2023-05-20T03:25:36;12.00;99.90
837;DHT22;400;53.550;9.932;2023-05-20T03:28:04;12.00;99.90
837;DHT22;400;53.550;9.932;2023-05-20T03:30:34;12.00;99.90
837;DHT22;400;53.550;9.932;2023-05-20T03:33:04;11.90;99.90
837;DHT22;400;53.550;9.932;2023-05-20T03:35:37;12.00;99.90
837;DHT22;400;53.550;9.932;2023-05-20T03:38:04;12.00;99.90
837;DHT22;400;53.550;9.932;2023-05-20T03:40:32;12.00;99.90
837;DHT22;400;53.550;9.932;2023-05-20T03:43:02;12.00;99.90
837;DHT22;400;53.550;9.932;2023-05-20T03:45:29;12.00;99.90
837;DHT22;400;53.550;9.932;2023-05-20T03:47:55;12.00;99.90
837;DHT22;400;53.550;9.932;2023-05-20T03:50:23;12.00;99.90
837;DHT22;400;53.550;9.932;2023-05-20T03:52:49;12.00;99.90
837;DHT22;400;53.550;9.932;2023-05-20T03:55:16;12.10;99.90
837;DHT22;400;53.550;9.932;2023-05-20T03:57:46;12.10;99.90
837;DHT22;400;53.550;9.932;2023-05-20T04:00:15;12.10;99.90
837;DHT22;400;53.550;9.932;2023-05-20T04:02:46;12.10;99.90
837;DHT22;400;53.550;9.932;2023-05-20T04:05:13;12.10;99.90
837;DHT22;400;53.550;9.932;2023-05-20T04:07:42;12.10;99.90
837;DHT22;400;53.550;9.932;2023-05-20T04:10:10;12.10;99.90
837;DHT22;400;53.550;9.932;2023-05-20T04:12:40;12.10;99.90
837;DHT22;400;53.550;9.932;2023-05-20T04:15:12;12.10;99.90
837;DHT22;400;53.550;9.932;2023-05-20T04:17:40;12.20;99.90
837;DHT22;400;53.550;9.932;2023-05-20T04:20:07;12.20;99.90
837;DHT22;400;53.550;9.932;2023-05-20T04:22:38;12.20;99.90
837;DHT22;400;53.550;9.932;2023-05-20T04:25:06;12.20;99.90
837;DHT22;400;53.550;9.932;2023-05-20T04:27:33;12.30;99.90
837;DHT22;400;53.550;9.932;2023-05-20T04:30:00;12.30;99.90
837;DHT22;400;53.550;9.932;2023-05-20T04:32:32;12.30;99.90
837;DHT22;400;53.550;9.932;2023-05-20T04:34:59;12.30;99.90
837;DHT22;400;53.550;9.932;2023-05-20T04:37:27;12.30;99.90
837;DHT22;400;53.550;9.932;2023-05-20T04:39:56;12.40;99.90
837;DHT22;400;53.550;9.932;2023-05-20T04:42:27;12.40;99.90
837;DHT22;400;53.550;9.932;2023-05-20T04:44:54;12.40;99.90
837;DHT22;400;53.550;9.932;2023-05-20T04:47:22;12.50;99.90
837;DHT22;400;53.550;9.932;2023-05-20T04:49:52;12.50;99.90
837;DHT22;400;53.550;9.932;2023-05-20T04:52:25;12.50;99.90
837;DHT22;400;53.550;9.932;2023-05-20T04:54:53;12.60;99.90
837;DHT22;400;53.550;9.932;2023-05-20T04:57:22;12.60;99.90
837;DHT22;400;53.550;9.932;2023-05-20T04:59:50;12.60;99.90
837;DHT22;400;53.550;9.932;2023-05-20T05:02:16;12.60;99.90
837;DHT22;400;53.550;9.932;2023-05-20T05:04:43;12.60;99.90
837;DHT22;400;53.550;9.932;2023-05-20T05:07:16;12.60;99.90
837;DHT22;400;53.550;9.932;2023-05-20T05:09:43;12.60;99.90
837;DHT22;400;53.550;9.932;2023-05-20T05:12:12;12.70;99.90
837;DHT22;400;53.550;9.932;2023-05-20T05:14:39;12.80;99.90
837;DHT22;400;53.550;9.932;2023-05-20T05:17:08;12.80;99.90
837;DHT22;400;53.550;9.932;2023-05-20T05:19:38;12.80;99.90
837;DHT22;400;53.550;9.932;2023-05-20T05:22:05;12.80;99.90
837;DHT22;400;53.550;9.932;2023-05-20T05:24:33;12.90;99.90
837;DHT22;400;53.550;9.932;2023-05-20T05:27:00;12.90;99.90
837;DHT22;400;53.550;9.932;2023-05-20T05:29:27;13.00;99.90
837;DHT22;400;53.550;9.932;2023-05-20T05:31:54;13.00;99.90
837;DHT22;400;53.550;9.932;2023-05-20T05:34:20;13.10;99.90
837;DHT22;400;53.550;9.932;2023-05-20T05:36:50;13.00;99.90
837;DHT22;400;53.550;9.932;2023-05-20T05:39:17;13.10;99.90
837;DHT22;400;53.550;9.932;2023-05-20T05:41:45;13.20;99.90
837;DHT22;400;53.550;9.932;2023-05-20T05:44:13;13.30;99.90
837;DHT22;400;53.550;9.932;2023-05-20T05:46:42;13.30;99.90
837;DHT22;400;53.550;9.932;2023-05-20T05:49:11;13.20;99.90
837;DHT22;400;53.550;9.932;2023-05-20T05:51:41;13.30;99.90
837;DHT22;400;53.550;9.932;2023-05-20T05:54:08;13.30;99.90
837;DHT22;400;53.550;9.932;2023-05-20T05:56:36;13.40;99.90
837;DHT22;400;53.550;9.932;2023-05-20T05:59:06;13.50;99.90
837;DHT22;400;53.550;9.932;2023-05-20T06:01:33;13.40;99.90
837;DHT22;400;53.550;9.932;2023-05-20T06:04:01;13.40;99.90
837;DHT22;400;53.550;9.932;2023-05-20T06:06:29;13.40;99.90
837;DHT22;400;53.550;9.932;2023-05-20T06:08:56;13.50;99.90
837;DHT22;400;53.550;9.932;2023-05-20T06:11:26;13.50;99.90
837;DHT22;400;53.550;9.932;2023-05-20T06:13:53;13.50;99.90
837;DHT22;400;53.550;9.932;2023-05-20T06:16:21;13.40;99.90
837;DHT22;400;53.550;9.932;2023-05-20T06:18:48;13.50;99.90
837;DHT22;400;53.550;9.932;2023-05-20T06:21:16;13.40;99.90
837;DHT22;400;53.550;9.932;2023-05-20T06:23:43;13.50;99.90
837;DHT22;400;53.550;9.932;2023-05-20T06:26:10;13.50;99.90
837;DHT22;400;53.550;9.932;2023-05-20T06:28:40;13.60;99.90
837;DHT22;400;53.550;9.932;2023-05-20T06:31:07;13.50;99.90
837;DHT22;400;53.550;9.932;2023-05-20T06:33:35;13.50;99.90
837;DHT22;400;53.550;9.932;2023-05-20T06:36:05;13.60;99.90
837;DHT22;400;53.550;9.932;2023-05-20T06:38:35;13.60;99.90
837;DHT22;400;53.550;9.932;2023-05-20T06:41:07;13.70;99.90
837;DHT22;400;53.550;9.932;2023-05-20T06:43:37;13.70;99.90
837;DHT22;400;53.550;9.932;2023-05-20T06:46:05;13.70;99.90
837;DHT22;400;53.550;9.932;2023-05-20T06:48:32;13.80;99.90
837;DHT22;400;53.550;9.932;2023-05-20T06:51:00;13.80;99.90
837;DHT22;400;53.550;9.932;2023-05-20T06:53:27;13.80;99.90
837;DHT22;400;53.550;9.932;2023-05-20T06:55:54;13.90;99.90
837;DHT22;400;53.550;9.932;2023-05-20T06:58:22;13.90;99.90
837;DHT22;400;53.550;9.932;2023-05-20T07:00:49;14.00;99.90
837;DHT22;400;53.550;9.932;2023-05-20T07:03:16;14.00;99.90
837;DHT22;400;53.550;9.932;2023-05-20T07:05:43;14.20;99.90
837;DHT22;400;53.550;9.932;2023-05-20T07:08:12;14.20;99.90
837;DHT22;400;53.550;9.932;2023-05-20T07:10:45;14.30;99.90
837;DHT22;400;53.550;9.932;2023-05-20T07:13:12;14.40;99.90
837;DHT22;400;53.550;9.932;2023-05-20T07:15:45;14.50;99.90
837;DHT22;400;53.550;9.932;2023-05-20T07:18:14;14.60;99.90
837;DHT22;400;53.550;9.932;2023-05-20T07:20:42;14.70;99.90
837;DHT22;400;53.550;9.932;2023-05-20T07:23:10;14.80;99.90
837;DHT22;400;53.550;9.932;2023-05-20T07:25:40;14.80;99.90
837;DHT22;400;53.550;9.932;2023-05-20T07:28:07;14.80;99.90
837;DHT22;400;53.550;9.932;2023-05-20T07:30:37;14.90;99.90
837;DHT22;400;53.550;9.932;2023-05-20T07:33:09;15.00;99.90
837;DHT22;400;53.550;9.932;2023-05-20T07:35:40;15.10;99.90
837;DHT22;400;53.550;9.932;2023-05-20T07:38:07;15.10;99.90
837;DHT22;400;53.550;9.932;2023-05-20T07:40:38;15.10;99.90
837;DHT22;400;53.550;9.932;2023-05-20T07:43:06;15.20;99.90
837;DHT22;400;53.550;9.932;2023-05-20T07:45:36;15.30;99.90
837;DHT22;400;53.550;9.932;2023-05-20T07:48:06;15.30;99.90
837;DHT22;400;53.550;9.932;2023-05-20T07:50:41;15.40;99.90
837;DHT22;400;53.550;9.932;2023-05-20T07:53:14;15.40;99.90
837;DHT22;400;53.550;9.932;2023-05-20T07:55:47;15.50;99.90
837;DHT22;400;53.550;9.932;2023-05-20T07:58:15;15.50;99.90
837;DHT22;400;53.550;9.932;2023-05-20T08:00:43;15.60;99.90
837;DHT22;400;53.550;9.932;2023-05-20T08:03:13;15.60;99.90
837;DHT22;400;53.550;9.932;2023-05-20T08:05:40;15.60;99.90
837;DHT22;400;53.550;9.932;2023-05-20T08:08:10;15.60;99.90
837;DHT22;400;53.550;9.932;2023-05-20T08:10:36;15.70;99.90
837;DHT22;400;53.550;9.932;2023-05-20T08:13:07;15.70;99.90
837;DHT22;400;53.550;9.932;2023-05-20T08:15:34;15.80;99.90
837;DHT22;400;53.550;9.932;2023-05-20T08:18:02;15.80;99.90
837;DHT22;400;53.550;9.932;2023-05-20T08:20:31;15.90;99.90
837;DHT22;400;53.550;9.932;2023-05-20T08:22:59;15.90;99.90
837;DHT22;400;53.550;9.932;2023-05-20T08:25:29;16.00;99.90
837;DHT22;400;53.550;9.932;2023-05-20T08:27:56;16.00;99.90
837;DHT22;400;53.550;9.932;2023-05-20T08:30:26;16.00;99.90
837;DHT22;400;53.550;9.932;2023-05-20T08:32:56;16.00;99.90
837;DHT22;400;53.550;9.932;2023-05-20T08:35:29;16.00;99.90
837;DHT22;400;53.550;9.932;2023-05-20T08:37:56;16.10;99.90
837;DHT22;400;53.550;9.932;2023-05-20T08:40:25;16.20;99.90
837;DHT22;400;53.550;9.932;2023-05-20T08:42:54;16.20;99.90
837;DHT22;400;53.550;9.932;2023-05-20T08:45:31;16.40;99.90
837;DHT22;400;53.550;9.932;2023-05-20T08:47:59;16.40;99.90
837;DHT22;400;53.550;9.932;2023-05-20T08:50:26;16.40;99.90
837;DHT22;400;53.550;9.932;2023-05-20T08:52:56;16.40;99.90
837;DHT22;400;53.550;9.932;2023-05-20T08:55:25;16.40;99.90
837;DHT22;400;53.550;9.932;2023-05-20T08:57:53;16.30;99.90
837;DHT22;400;53.550;9.932;2023-05-20T09:00:21;16.40;99.90
837;DHT22;400;53.550;9.932;2023-05-20T09:02:53;16.40;99.90
837;DHT22;400;53.550;9.932;2023-05-20T09:05:26;16.40;99.90
837;DHT22;400;53.550;9.932;2023-05-20T09:08:03;16.50;99.90
837;DHT22;400;53.550;9.932;2023-05-20T09:10:34;16.50;99.90
837;DHT22;400;53.550;9.932;2023-05-20T09:13:02;16.40;99.90
837;DHT22;400;53.550;9.932;2023-05-20T09:15:29;16.50;99.90
837;DHT22;400;53.550;9.932;2023-05-20T09:18:00;16.60;99.90
837;DHT22;400;53.550;9.932;2023-05-20T09:20:28;16.60;99.90
837;DHT22;400;53.550;9.932;2023-05-20T09:22:59;16.70;99.90
837;DHT22;400;53.550;9.932;2023-05-20T09:25:28;16.80;99.90
837;DHT22;400;53.550;9.932;2023-05-20T09:27:56;16.70;99.90
837;DHT22;400;53.550;9.932;2023-05-20T09:30:23;16.70;99.90
837;DHT22;400;53.550;9.932;2023-05-20T09:32:53;16.80;99.90
837;DHT22;400;53.550;9.932;2023-05-20T09:35:22;16.90;99.90
837;DHT22;400;53.550;9.932;2023-05-20T09:37:51;16.80;99.90
837;DHT22;400;53.550;9.932;2023-05-20T09:40:23;16.60;99.90
837;DHT22;400;53.550;9.932;2023-05-20T09:42:55;16.60;99.90
837;DHT22;400;53.550;9.932;2023-05-20T09:45:22;16.60;99.90
837;DHT22;400;53.550;9.932;2023-05-20T09:47:53;16.60;99.90
837;DHT22;400;53.550;9.932;2023-05-20T09:50:28;16.70;99.90
837;DHT22;400;53.550;9.932;2023-05-20T09:52:56;16.80;99.90
837;DHT22;400;53.550;9.932;2023-05-20T09:55:27;16.70;99.90
837;DHT22;400;53.550;9.932;2023-05-20T09:57:55;16.80;99.90
837;DHT22;400;53.550;9.932;2023-05-20T10:00:25;16.80;99.90
837;DHT22;400;53.550;9.932;2023-05-20T10:02:52;16.80;99.90
837;DHT22;400;53.550;9.932;2023-05-20T10:05:21;16.80;99.90
837;DHT22;400;53.550;9.932;2023-05-20T10:08:24;16.80;99.90
837;DHT22;400;53.550;9.932;2023-05-20T10:11:04;16.80;99.90
837;DHT22;400;53.550;9.932;2023-05-20T10:13:49;16.80;99.90
837;DHT22;400;53.550;9.932;2023-05-20T10:16:25;16.90;99.90
837;DHT22;400;53.550;9.932;2023-05-20T10:19:00;17.10;99.90
837;DHT22;400;53.550;9.932;2023-05-20T10:21:32;17.10;99.90
837;DHT22;400;53.550;9.932;2023-05-20T10:24:11;17.20;99.90
837;DHT22;400;53.550;9.932;2023-05-20T10:26:40;17.20;99.90
837;DHT22;400;53.550;9.932;2023-05-20T10:29:16;17.10;99.90
837;DHT22;400;53.550;9.932;2023-05-20T10:31:47;17.10;99.90
837;DHT22;400;53.550;9.932;2023-05-20T10:34:14;17.10;99.90
837;DHT22;400;53.550;9.932;2023-05-20T10:36:45;17.30;99.90
837;DHT22;400;53.550;9.932;2023-05-20T10:39:15;17.20;99.90
837;DHT22;400;53.550;9.932;2023-05-20T10:41:42;17.20;99.90
837;DHT22;400;53.550;9.932;2023-05-20T10:44:15;17.40;99.90
837;DHT22;400;53.550;9.932;2023-05-20T10:46:45;17.40;99.90
837;DHT22;400;53.550;9.932;2023-05-20T10:49:18;17.60;99.90
837;DHT22;400;53.550;9.932;2023-05-20T10:51:47;17.70;99.90
837;DHT22;400;53.550;9.932;2023-05-20T10:54:24;17.60;99.90
837;DHT22;400;53.550;9.932;2023-05-20T10:56:58;17.70;99.90
837;DHT22;400;53.550;9.932;2023-05-20T10:59:31;17.80;99.90
837;DHT22;400;53.550;9.932;2023-05-20T11:02:00;17.80;99.90
837;DHT22;400;53.550;9.932;2023-05-20T11:04:29;17.80;99.90
837;DHT22;400;53.550;9.932;2023-05-20T11:06:57;17.80;99.90
837;DHT22;400;53.550;9.932;2023-05-20T11:09:27;17.80;99.90
837;DHT22;400;53.550;9.932;2023-05-20T11:11:58;17.90;99.90
837;DHT22;400;53.550;9.932;2023-05-20T11:14:30;17.80;99.90
837;DHT22;400;53.550;9.932;2023-05-20T11:16:59;17.90;99.90
837;DHT22;400;53.550;9.932;2023-05-20T11:19:35;18.00;99.90
837;DHT22;400;53.550;9.932;2023-05-20T11:22:10;18.00;99.90
837;DHT22;400;53.550;9.932;2023-05-20T11:24:42;18.10;99.90
837;DHT22;400;53.550;9.932;2023-05-20T11:27:12;18.10;99.90
837;DHT22;400;53.550;9.932;2023-05-20T11:29:50;18.20;99.90
837;DHT22;400;53.550;9.932;2023-05-20T11:32:26;18.10;99.90
837;DHT22;400;53.550;9.932;2023-05-20T11:35:05;18.00;99.90
837;DHT22;400;53.550;9.932;2023-05-20T11:37:36;18.10;99.90
837;DHT22;400;53.550;9.932;2023-05-20T11:40:10;18.10;99.90
837;DHT22;400;53.550;9.932;2023-05-20T11:42:43;18.10;99.90
837;DHT22;400;53.550;9.932;2023-05-20T11:45:15;18.00;99.70
837;DHT22;400;53.550;9.932;2023-05-20T11:47:44;18.00;99.70
837;DHT22;400;53.550;9.932;2023-05-20T11:50:18;17.90;99.70
837;DHT22;400;53.550;9.932;2023-05-20T11:52:59;17.70;99.90
837;DHT22;400;53.550;9.932;2023-05-20T11:55:32;17.90;99.90
837;DHT22;400;53.550;9.932;2023-05-20T11:58:02;17.90;99.90
837;DHT22;400;53.550;9.932;2023-05-20T12:00:31;18.00;99.90
837;DHT22;400;53.550;9.932;2023-05-20T12:02:58;18.10;99.90
837;DHT22;400;53.550;9.932;2023-05-20T12:05:25;18.10;99.80
837;DHT22;400;53.550;9.932;2023-05-20T12:07:52;18.30;99.90
837;DHT22;400;53.550;9.932;2023-05-20T12:10:22;18.10;99.70
837;DHT22;400;53.550;9.932;2023-05-20T12:12:50;18.20;99.90
837;DHT22;400;53.550;9.932;2023-05-20T12:15:17;18.20;99.80
837;DHT22;400;53.550;9.932;2023-05-20T12:17:48;18.10;99.50
837;DHT22;400;53.550;9.932;2023-05-20T12:20:31;18.00;99.70
837;DHT22;400;53.550;9.932;2023-05-20T12:23:02;18.00;99.70
837;DHT22;400;53.550;9.932;2023-05-20T12:25:29;18.10;99.60
837;DHT22;400;53.550;9.932;2023-05-20T12:28:02;18.30;99.40
837;DHT22;400;53.550;9.932;2023-05-20T12:30:33;18.50;99.40
837;DHT22;400;53.550;9.932;2023-05-20T12:33:08;18.50;99.20
837;DHT22;400;53.550;9.932;2023-05-20T12:35:38;18.60;99.30
837;DHT22;400;53.550;9.932;2023-05-20T12:38:05;18.60;99.50
837;DHT22;400;53.550;9.932;2023-05-20T12:40:40;18.60;99.50
837;DHT22;400;53.550;9.932;2023-05-20T12:43:10;18.50;99.70
837;DHT22;400;53.550;9.932;2023-05-20T12:45:37;18.40;99.60
837;DHT22;400;53.550;9.932;2023-05-20T12:48:10;18.40;99.50
837;DHT22;400;53.550;9.932;2023-05-20T12:50:41;18.40;99.60
837;DHT22;400;53.550;9.932;2023-05-20T12:53:08;18.40;99.10
837;DHT22;400;53.550;9.932;2023-05-20T12:55:37;18.50;99.00
837;DHT22;400;53.550;9.932;2023-05-20T12:58:13;18.40;98.90
837;DHT22;400;53.550;9.932;2023-05-20T13:00:40;18.50;99.20
837;DHT22;400;53.550;9.932;2023-05-20T13:03:12;18.50;99.20
837;DHT22;400;53.550;9.932;2023-05-20T13:05:41;18.70;99.30
837;DHT22;400;53.550;9.932;2023-05-20T13:08:09;18.70;99.30
837;DHT22;400;53.550;9.932;2023-05-20T13:10:37;18.80;99.30
837;DHT22;400;53.550;9.932;2023-05-20T13:13:04;18.80;99.00
837;DHT22;400;53.550;9.932;2023-05-20T13:15:33;18.90;98.90
837;DHT22;400;53.550;9.932;2023-05-20T13:18:02;18.90;98.70
837;DHT22;400;53.550;9.932;2023-05-20T13:20:31;19.10;98.60
837;DHT22;400;53.550;9.932;2023-05-20T13:23:01;19.10;98.50
837;DHT22;400;53.550;9.932;2023-05-20T13:25:30;19.20;98.30
837;DHT22;400;53.550;9.932;2023-05-20T13:27:59;19.20;98.10
837;DHT22;400;53.550;9.932;2023-05-20T13:30:36;19.30;98.30
837;DHT22;400;53.550;9.932;2023-05-20T13:33:05;19.10;98.50
837;DHT22;400;53.550;9.932;2023-05-20T13:35:33;18.90;98.70
837;DHT22;400;53.550;9.932;2023-05-20T13:38:00;18.90;98.80
837;DHT22;400;53.550;9.932;2023-05-20T13:40:27;18.80;98.70
837;DHT22;400;53.550;9.932;2023-05-20T13:42:55;18.90;98.90
837;DHT22;400;53.550;9.932;2023-05-20T13:45:26;19.10;98.80
837;DHT22;400;53.550;9.932;2023-05-20T13:48:00;19.30;98.70
837;DHT22;400;53.550;9.932;2023-05-20T13:50:28;19.30;98.50
837;DHT22;400;53.550;9.932;2023-05-20T13:53:01;19.40;98.40
837;DHT22;400;53.550;9.932;2023-05-20T13:55:31;19.20;98.30
837;DHT22;400;53.550;9.932;2023-05-20T13:57:58;19.00;98.60
837;DHT22;400;53.550;9.932;2023-05-20T14:00:27;19.00;98.90
837;DHT22;400;53.550;9.932;2023-05-20T14:02:58;19.00;99.00
837;DHT22;400;53.550;9.932;2023-05-20T14:05:40;19.00;98.90
837;DHT22;400;53.550;9.932;2023-05-20T14:08:07;18.70;99.00
837;DHT22;400;53.550;9.932;2023-05-20T14:10:36;18.70;99.30
837;DHT22;400;53.550;9.932;2023-05-20T14:13:03;18.70;99.30
837;DHT22;400;53.550;9.932;2023-05-20T14:15:30;18.80;99.40
837;DHT22;400;53.550;9.932;2023-05-20T14:18:00;18.90;99.30
837;DHT22;400;53.550;9.932;2023-05-20T14:20:27;18.90;99.30
837;DHT22;400;53.550;9.932;2023-05-20T14:22:56;18.90;99.30
837;DHT22;400;53.550;9.932;2023-05-20T14:25:25;19.10;99.40
837;DHT22;400;53.550;9.932;2023-05-20T14:27:53;19.10;99.20
837;DHT22;400;53.550;9.932;2023-05-20T14:30:22;19.20;99.10
837;DHT22;400;53.550;9.932;2023-05-20T14:32:52;19.20;99.00
837;DHT22;400;53.550;9.932;2023-05-20T14:35:20;19.00;99.00
837;DHT22;400;53.550;9.932;2023-05-20T14:37:47;18.90;99.30
837;DHT22;400;53.550;9.932;2023-05-20T14:40:20;18.70;99.50
837;DHT22;400;53.550;9.932;2023-05-20T14:42:46;18.90;99.80
837;DHT22;400;53.550;9.932;2023-05-20T14:45:16;19.00;99.80
837;DHT22;400;53.550;9.932;2023-05-20T14:47:47;19.00;99.70
837;DHT22;400;53.550;9.932;2023-05-20T14:50:21;19.10;99.80
837;DHT22;400;53.550;9.932;2023-05-20T14:52:48;19.00;99.80
837;DHT22;400;53.550;9.932;2023-05-20T14:55:16;19.10;99.80
837;DHT22;400;53.550;9.932;2023-05-20T14:57:44;18.80;99.80
837;DHT22;400;53.550;9.932;2023-05-20T15:00:12;18.70;99.90
837;DHT22;400;53.550;9.932;2023-05-20T15:02:39;18.60;99.90
837;DHT22;400;53.550;9.932;2023-05-20T15:05:07;18.40;99.90
837;DHT22;400;53.550;9.932;2023-05-20T15:07:40;18.40;99.90
837;DHT22;400;53.550;9.932;2023-05-20T15:10:09;18.30;99.90
837;DHT22;400;53.550;9.932;2023-05-20T15:12:37;18.20;99.90
837;DHT22;400;53.550;9.932;2023-05-20T15:15:11;18.30;99.90
837;DHT22;400;53.550;9.932;2023-05-20T15:17:42;18.40;99.90
837;DHT22;400;53.550;9.932;2023-05-20T15:20:13;18.40;99.90
837;DHT22;400;53.550;9.932;2023-05-20T15:22:42;18.50;99.90
837;DHT22;400;53.550;9.932;2023-05-20T15:25:12;18.40;99.90
837;DHT22;400;53.550;9.932;2023-05-20T15:27:46;18.50;99.90
837;DHT22;400;53.550;9.932;2023-05-20T15:30:17;18.40;99.90
837;DHT22;400;53.550;9.932;2023-05-20T15:32:44;18.30;99.90
837;DHT22;400;53.550;9.932;2023-05-20T15:35:13;18.20;99.90
837;DHT22;400;53.550;9.932;2023-05-20T15:37:43;18.30;99.90
837;DHT22;400;53.550;9.932;2023-05-20T15:40:16;18.20;99.90
837;DHT22;400;53.550;9.932;2023-05-20T15:42:45;18.10;99.90
837;DHT22;400;53.550;9.932;2023-05-20T15:45:12;18.20;99.90
837;DHT22;400;53.550;9.932;2023-05-20T15:47:42;18.20;99.90
837;DHT22;400;53.550;9.932;2023-05-20T15:50:09;18.30;99.90
837;DHT22;400;53.550;9.932;2023-05-20T15:52:39;18.10;99.90
837;DHT22;400;53.550;9.932;2023-05-20T15:55:10;18.00;99.90
837;DHT22;400;53.550;9.932;2023-05-20T15:57:41;18.20;99.90
837;DHT22;400;53.550;9.932;2023-05-20T16:00:09;18.20;99.90
837;DHT22;400;53.550;9.932;2023-05-20T16:02:40;18.30;99.90
837;DHT22;400;53.550;9.932;2023-05-20T16:05:09;18.40;99.90
837;DHT22;400;53.550;9.932;2023-05-20T16:07:37;18.40;99.90
837;DHT22;400;53.550;9.932;2023-05-20T16:10:04;18.20;99.90
837;DHT22;400;53.550;9.932;2023-05-20T16:12:32;18.20;99.90
837;DHT22;400;53.550;9.932;2023-05-20T16:15:02;18.30;99.90
837;DHT22;400;53.550;9.932;2023-05-20T16:17:34;18.20;99.90
837;DHT22;400;53.550;9.932;2023-05-20T16:20:15;18.00;99.90
837;DHT22;400;53.550;9.932;2023-05-20T16:22:49;18.00;99.90
837;DHT22;400;53.550;9.932;2023-05-20T16:25:23;18.00;99.90
837;DHT22;400;53.550;9.932;2023-05-20T16:27:55;18.10;99.90
837;DHT22;400;53.550;9.932;2023-05-20T16:30:33;18.20;99.90
837;DHT22;400;53.550;9.932;2023-05-20T16:33:04;18.10;99.90
837;DHT22;400;53.550;9.932;2023-05-20T16:35:40;18.00;99.90
837;DHT22;400;53.550;9.932;2023-05-20T16:38:09;17.80;99.90
837;DHT22;400;53.550;9.932;2023-05-20T16:40:36;17.70;99.90
837;DHT22;400;53.550;9.932;2023-05-20T16:43:03;17.70;99.90
837;DHT22;400;53.550;9.932;2023-05-20T16:45:31;17.70;99.90
837;DHT22;400;53.550;9.932;2023-05-20T16:47:58;17.60;99.90
837;DHT22;400;53.550;9.932;2023-05-20T16:50:27;17.60;99.90
837;DHT22;400;53.550;9.932;2023-05-20T16:52:59;17.50;99.90